sensor_id;sensor_type;location;lat;lon;timestamp;P1;durP1;ratioP1;P2;durP2;ratioP2
15665;SDS011;20725;51.196;3.510;2023-03-23T00:00:58;2.07;;;1.97;;
15665;SDS011;20725;51.196;3.510;2023-03-23T00:03:27;4.50;;;1.90;;
15665;SDS011;20725;51.196;3.510;2023-03-23T00:05:56;2.30;;;1.67;;
15665;SDS011;20725;51.196;3.510;2023-03-23T00:08:29;2.70;;;1.73;;
15665;SDS011;20725;51.196;3.510;2023-03-23T00:10:57;2.43;;;1.90;;
15665;SDS011;20725;51.196;3.510;2023-03-23T00:13:26;2.00;;;1.90;;
15665;SDS011;20725;51.196;3.510;2023-03-23T00:15:54;4.00;;;2.03;;
15665;SDS011;20725;51.196;3.510;2023-03-23T00:18:23;2.17;;;2.07;;
15665;SDS011;20725;51.196;3.510;2023-03-23T00:20:52;2.30;;;1.87;;
15665;SDS011;20725;51.196;3.510;2023-03-23T00:23:21;3.47;;;2.50;;
15665;SDS011;20725;51.196;3.510;2023-03-23T00:25:50;2.33;;;2.23;;
15665;SDS011;20725;51.196;3.510;2023-03-23T00:28:21;2.63;;;2.43;;
15665;SDS011;20725;51.196;3.510;2023-03-23T00:30:54;2.17;;;2.07;;
15665;SDS011;20725;51.196;3.510;2023-03-23T00:33:23;3.03;;;2.17;;
15665;SDS011;20725;51.196;3.510;2023-03-23T00:35:52;2.40;;;1.70;;
15665;SDS011;20725;51.196;3.510;2023-03-23T00:38:20;2.10;;;1.80;;
15665;SDS011;20725;51.196;3.510;2023-03-23T00:40:48;2.13;;;1.87;;
15665;SDS011;20725;51.196;3.510;2023-03-23T00:43:15;1.87;;;1.73;;
15665;SDS011;20725;51.196;3.510;2023-03-23T00:45:44;3.57;;;2.00;;
15665;SDS011;20725;51.196;3.510;2023-03-23T00:48:17;1.80;;;1.70;;
15665;SDS011;20725;51.196;3.510;2023-03-23T00:50:44;2.13;;;1.93;;
15665;SDS011;20725;51.196;3.510;2023-03-23T00:53:13;2.30;;;1.87;;
15665;SDS011;20725;51.196;3.510;2023-03-23T00:55:41;1.90;;;1.80;;
15665;SDS011;20725;51.196;3.510;2023-03-23T00:58:08;2.60;;;1.87;;
15665;SDS011;20725;51.196;3.510;2023-03-23T01:03:11;3.17;;;1.90;;
15665;SDS011;20725;51.196;3.510;2023-03-23T01:05:43;4.83;;;1.90;;
15665;SDS011;20725;51.196;3.510;2023-03-23T01:08:13;2.83;;;2.33;;
15665;SDS011;20725;51.196;3.510;2023-03-23T01:10:41;2.27;;;1.80;;
15665;SDS011;20725;51.196;3.510;2023-03-23T01:13:08;2.63;;;2.33;;
15665;SDS011;20725;51.196;3.510;2023-03-23T01:15:35;2.70;;;1.87;;
15665;SDS011;20725;51.196;3.510;2023-03-23T01:18:02;2.27;;;2.17;;
15665;SDS011;20725;51.196;3.510;2023-03-23T01:20:29;3.13;;;1.83;;
15665;SDS011;20725;51.196;3.510;2023-03-23T01:22:57;2.03;;;1.63;;
15665;SDS011;20725;51.196;3.510;2023-03-23T01:25:27;4.47;;;2.03;;
15665;SDS011;20725;51.196;3.510;2023-03-23T01:27:55;2.17;;;2.03;;
15665;SDS011;20725;51.196;3.510;2023-03-23T01:30:22;6.43;;;2.33;;
15665;SDS011;20725;51.196;3.510;2023-03-23T01:32:50;2.23;;;2.03;;
15665;SDS011;20725;51.196;3.510;2023-03-23T01:35:17;1.80;;;1.70;;
15665;SDS011;20725;51.196;3.510;2023-03-23T01:37:44;2.07;;;1.97;;
15665;SDS011;20725;51.196;3.510;2023-03-23T01:40:12;2.93;;;2.40;;
15665;SDS011;20725;51.196;3.510;2023-03-23T01:42:41;2.30;;;2.10;;
15665;SDS011;20725;51.196;3.510;2023-03-23T01:45:21;2.00;;;1.90;;
15665;SDS011;20725;51.196;3.510;2023-03-23T01:47:55;2.40;;;2.20;;
15665;SDS011;20725;51.196;3.510;2023-03-23T01:50:29;1.97;;;1.87;;
15665;SDS011;20725;51.196;3.510;2023-03-23T01:53:00;1.70;;;1.60;;
15665;SDS011;20725;51.196;3.510;2023-03-23T01:55:32;2.50;;;1.80;;
15665;SDS011;20725;51.196;3.510;2023-03-23T01:58:00;1.97;;;1.87;;
15665;SDS011;20725;51.196;3.510;2023-03-23T02:00:27;4.00;;;1.90;;
15665;SDS011;20725;51.196;3.510;2023-03-23T02:02:54;2.00;;;1.90;;
15665;SDS011;20725;51.196;3.510;2023-03-23T02:05:24;2.33;;;1.93;;
15665;SDS011;20725;51.196;3.510;2023-03-23T02:07:54;5.23;;;1.80;;
15665;SDS011;20725;51.196;3.510;2023-03-23T02:10:27;1.63;;;1.50;;
15665;SDS011;20725;51.196;3.510;2023-03-23T02:12:55;2.70;;;1.60;;
15665;SDS011;20725;51.196;3.510;2023-03-23T02:15:23;3.03;;;1.50;;
15665;SDS011;20725;51.196;3.510;2023-03-23T02:17:55;3.67;;;2.20;;
15665;SDS011;20725;51.196;3.510;2023-03-23T02:20:33;1.57;;;1.47;;
15665;SDS011;20725;51.196;3.510;2023-03-23T02:23:19;1.80;;;1.70;;
15665;SDS011;20725;51.196;3.510;2023-03-23T02:26:16;1.83;;;1.60;;
15665;SDS011;20725;51.196;3.510;2023-03-23T02:29:13;2.87;;;1.93;;
15665;SDS011;20725;51.196;3.510;2023-03-23T02:31:54;3.00;;;1.57;;
15665;SDS011;20725;51.196;3.510;2023-03-23T02:34:33;2.03;;;1.43;;
15665;SDS011;20725;51.196;3.510;2023-03-23T02:37:08;5.47;;;2.23;;
15665;SDS011;20725;51.196;3.510;2023-03-23T02:39:37;1.80;;;1.70;;
15665;SDS011;20725;51.196;3.510;2023-03-23T02:42:10;5.30;;;2.10;;
15665;SDS011;20725;51.196;3.510;2023-03-23T02:44:43;4.83;;;2.00;;
15665;SDS011;20725;51.196;3.510;2023-03-23T02:47:11;2.57;;;1.50;;
15665;SDS011;20725;51.196;3.510;2023-03-23T02:49:43;3.13;;;2.00;;
15665;SDS011;20725;51.196;3.510;2023-03-23T02:52:14;3.97;;;1.97;;
15665;SDS011;20725;51.196;3.510;2023-03-23T02:54:44;4.80;;;2.37;;
15665;SDS011;20725;51.196;3.510;2023-03-23T02:57:14;3.97;;;1.70;;
15665;SDS011;20725;51.196;3.510;2023-03-23T02:59:41;3.33;;;2.00;;
15665;SDS011;20725;51.196;3.510;2023-03-23T03:02:10;3.53;;;1.83;;
15665;SDS011;20725;51.196;3.510;2023-03-23T03:04:40;6.70;;;2.10;;
15665;SDS011;20725;51.196;3.510;2023-03-23T03:07:18;4.20;;;1.40;;
15665;SDS011;20725;51.196;3.510;2023-03-23T03:09:55;3.93;;;1.97;;
15665;SDS011;20725;51.196;3.510;2023-03-23T03:12:28;9.00;;;2.37;;
15665;SDS011;20725;51.196;3.510;2023-03-23T03:14:58;5.10;;;1.40;;
15665;SDS011;20725;51.196;3.510;2023-03-23T03:17:32;4.93;;;2.30;;
15665;SDS011;20725;51.196;3.510;2023-03-23T03:20:04;2.83;;;1.57;;
15665;SDS011;20725;51.196;3.510;2023-03-23T03:22:36;8.07;;;2.23;;
15665;SDS011;20725;51.196;3.510;2023-03-23T03:25:07;4.03;;;2.00;;
15665;SDS011;20725;51.196;3.510;2023-03-23T03:27:37;3.57;;;2.00;;
15665;SDS011;20725;51.196;3.510;2023-03-23T03:30:07;5.07;;;2.47;;
15665;SDS011;20725;51.196;3.510;2023-03-23T03:32:38;5.30;;;1.67;;
15665;SDS011;20725;51.196;3.510;2023-03-23T03:35:09;9.23;;;2.00;;
15665;SDS011;20725;51.196;3.510;2023-03-23T03:37:38;5.63;;;2.40;;
15665;SDS011;20725;51.196;3.510;2023-03-23T03:40:06;3.73;;;2.20;;
15665;SDS011;20725;51.196;3.510;2023-03-23T03:42:37;5.83;;;2.00;;
15665;SDS011;20725;51.196;3.510;2023-03-23T03:45:05;7.27;;;2.17;;
15665;SDS011;20725;51.196;3.510;2023-03-23T03:47:33;4.70;;;1.60;;
15665;SDS011;20725;51.196;3.510;2023-03-23T03:50:01;3.23;;;1.93;;
15665;SDS011;20725;51.196;3.510;2023-03-23T03:52:28;4.17;;;2.00;;
15665;SDS011;20725;51.196;3.510;2023-03-23T03:54:56;6.40;;;2.00;;
15665;SDS011;20725;51.196;3.510;2023-03-23T03:57:23;11.27;;;2.73;;
15665;SDS011;20725;51.196;3.510;2023-03-23T03:59:51;4.90;;;2.00;;
15665;SDS011;20725;51.196;3.510;2023-03-23T04:02:18;4.73;;;2.27;;
15665;SDS011;20725;51.196;3.510;2023-03-23T04:04:46;2.87;;;1.77;;
15665;SDS011;20725;51.196;3.510;2023-03-23T04:07:13;4.57;;;1.90;;
15665;SDS011;20725;51.196;3.510;2023-03-23T04:09:41;6.57;;;1.93;;
15665;SDS011;20725;51.196;3.510;2023-03-23T04:12:12;7.83;;;2.20;;
15665;SDS011;20725;51.196;3.510;2023-03-23T04:14:40;5.80;;;2.10;;
15665;SDS011;20725;51.196;3.510;2023-03-23T04:17:07;7.37;;;2.23;;
15665;SDS011;20725;51.196;3.510;2023-03-23T04:19:36;5.10;;;2.40;;
15665;SDS011;20725;51.196;3.510;2023-03-23T04:22:03;7.73;;;2.20;;
15665;SDS011;20725;51.196;3.510;2023-03-23T04:24:31;2.57;;;1.90;;
15665;SDS011;20725;51.196;3.510;2023-03-23T04:26:59;8.67;;;2.53;;
15665;SDS011;20725;51.196;3.510;2023-03-23T04:29:28;7.43;;;2.93;;
15665;SDS011;20725;51.196;3.510;2023-03-23T04:31:58;4.37;;;2.03;;
15665;SDS011;20725;51.196;3.510;2023-03-23T04:34:26;7.20;;;2.40;;
15665;SDS011;20725;51.196;3.510;2023-03-23T04:36:59;5.40;;;2.20;;
15665;SDS011;20725;51.196;3.510;2023-03-23T04:39:25;7.23;;;2.13;;
15665;SDS011;20725;51.196;3.510;2023-03-23T04:41:54;9.80;;;2.57;;
15665;SDS011;20725;51.196;3.510;2023-03-23T04:44:26;7.83;;;2.47;;
15665;SDS011;20725;51.196;3.510;2023-03-23T04:46:55;5.77;;;1.90;;
15665;SDS011;20725;51.196;3.510;2023-03-23T04:49:27;5.53;;;2.40;;
15665;SDS011;20725;51.196;3.510;2023-03-23T04:51:55;6.87;;;2.43;;
15665;SDS011;20725;51.196;3.510;2023-03-23T04:54:22;5.60;;;2.13;;
15665;SDS011;20725;51.196;3.510;2023-03-23T04:56:49;8.47;;;2.97;;
15665;SDS011;20725;51.196;3.510;2023-03-23T04:59:16;9.03;;;2.53;;
15665;SDS011;20725;51.196;3.510;2023-03-23T05:01:43;5.60;;;3.03;;
15665;SDS011;20725;51.196;3.510;2023-03-23T05:04:12;4.10;;;2.10;;
15665;SDS011;20725;51.196;3.510;2023-03-23T05:06:41;3.33;;;1.90;;
15665;SDS011;20725;51.196;3.510;2023-03-23T05:09:10;11.07;;;2.97;;
15665;SDS011;20725;51.196;3.510;2023-03-23T05:11:38;10.43;;;3.00;;
15665;SDS011;20725;51.196;3.510;2023-03-23T05:14:05;7.53;;;2.70;;
15665;SDS011;20725;51.196;3.510;2023-03-23T05:16:32;5.07;;;2.20;;
15665;SDS011;20725;51.196;3.510;2023-03-23T05:19:01;10.37;;;3.10;;
15665;SDS011;20725;51.196;3.510;2023-03-23T05:21:31;8.67;;;2.60;;
15665;SDS011;20725;51.196;3.510;2023-03-23T05:23:58;11.63;;;3.03;;
15665;SDS011;20725;51.196;3.510;2023-03-23T05:26:26;4.83;;;2.13;;
15665;SDS011;20725;51.196;3.510;2023-03-23T05:28:54;8.37;;;3.00;;
15665;SDS011;20725;51.196;3.510;2023-03-23T05:31:21;8.07;;;2.67;;
15665;SDS011;20725;51.196;3.510;2023-03-23T05:33:49;7.57;;;2.80;;
15665;SDS011;20725;51.196;3.510;2023-03-23T05:36:17;8.07;;;2.50;;
15665;SDS011;20725;51.196;3.510;2023-03-23T05:38:46;11.40;;;2.93;;
15665;SDS011;20725;51.196;3.510;2023-03-23T05:41:14;12.00;;;3.23;;
15665;SDS011;20725;51.196;3.510;2023-03-23T05:43:42;7.70;;;3.33;;
15665;SDS011;20725;51.196;3.510;2023-03-23T05:46:09;12.50;;;3.53;;
15665;SDS011;20725;51.196;3.510;2023-03-23T05:48:36;5.83;;;2.73;;
15665;SDS011;20725;51.196;3.510;2023-03-23T05:51:04;9.20;;;3.47;;
15665;SDS011;20725;51.196;3.510;2023-03-23T05:53:32;10.27;;;2.90;;
15665;SDS011;20725;51.196;3.510;2023-03-23T05:56:02;10.63;;;2.63;;
15665;SDS011;20725;51.196;3.510;2023-03-23T05:58:30;8.53;;;3.00;;
15665;SDS011;20725;51.196;3.510;2023-03-23T06:00:58;5.07;;;2.23;;
15665;SDS011;20725;51.196;3.510;2023-03-23T06:03:25;12.13;;;3.50;;
15665;SDS011;20725;51.196;3.510;2023-03-23T06:05:52;7.67;;;3.07;;
15665;SDS011;20725;51.196;3.510;2023-03-23T06:08:20;6.87;;;3.00;;
15665;SDS011;20725;51.196;3.510;2023-03-23T06:10:48;7.03;;;3.07;;
15665;SDS011;20725;51.196;3.510;2023-03-23T06:13:18;4.73;;;2.13;;
15665;SDS011;20725;51.196;3.510;2023-03-23T06:15:46;7.93;;;3.00;;
15665;SDS011;20725;51.196;3.510;2023-03-23T06:18:14;8.63;;;3.03;;
15665;SDS011;20725;51.196;3.510;2023-03-23T06:20:42;7.70;;;2.77;;
15665;SDS011;20725;51.196;3.510;2023-03-23T06:23:12;8.33;;;2.90;;
15665;SDS011;20725;51.196;3.510;2023-03-23T06:25:41;7.50;;;2.47;;
15665;SDS011;20725;51.196;3.510;2023-03-23T06:28:08;5.37;;;2.13;;
15665;SDS011;20725;51.196;3.510;2023-03-23T06:30:38;7.67;;;2.27;;
15665;SDS011;20725;51.196;3.510;2023-03-23T06:33:07;3.90;;;1.77;;
15665;SDS011;20725;51.196;3.510;2023-03-23T06:35:34;6.40;;;3.17;;
15665;SDS011;20725;51.196;3.510;2023-03-23T06:38:02;3.63;;;1.93;;
15665;SDS011;20725;51.196;3.510;2023-03-23T06:40:31;6.30;;;1.90;;
15665;SDS011;20725;51.196;3.510;2023-03-23T06:42:58;3.93;;;1.90;;
15665;SDS011;20725;51.196;3.510;2023-03-23T06:45:26;3.27;;;1.80;;
15665;SDS011;20725;51.196;3.510;2023-03-23T06:47:55;5.70;;;2.60;;
15665;SDS011;20725;51.196;3.510;2023-03-23T06:50:23;4.80;;;1.87;;
15665;SDS011;20725;51.196;3.510;2023-03-23T06:52:51;13.03;;;2.80;;
15665;SDS011;20725;51.196;3.510;2023-03-23T06:55:20;1.93;;;1.60;;
15665;SDS011;20725;51.196;3.510;2023-03-23T06:57:48;3.97;;;2.20;;
15665;SDS011;20725;51.196;3.510;2023-03-23T07:00:15;4.00;;;1.83;;
15665;SDS011;20725;51.196;3.510;2023-03-23T07:02:43;7.67;;;2.40;;
15665;SDS011;20725;51.196;3.510;2023-03-23T07:05:12;5.00;;;2.10;;
15665;SDS011;20725;51.196;3.510;2023-03-23T07:07:40;5.73;;;2.03;;
15665;SDS011;20725;51.196;3.510;2023-03-23T07:10:08;5.03;;;2.03;;
15665;SDS011;20725;51.196;3.510;2023-03-23T07:12:36;4.43;;;2.20;;
15665;SDS011;20725;51.196;3.510;2023-03-23T07:15:03;3.93;;;1.90;;
15665;SDS011;20725;51.196;3.510;2023-03-23T07:17:33;2.53;;;2.00;;
15665;SDS011;20725;51.196;3.510;2023-03-23T07:20:00;5.53;;;2.13;;
15665;SDS011;20725;51.196;3.510;2023-03-23T07:22:29;5.37;;;2.20;;
15665;SDS011;20725;51.196;3.510;2023-03-23T07:24:56;5.43;;;2.37;;
15665;SDS011;20725;51.196;3.510;2023-03-23T07:27:23;6.57;;;2.60;;
15665;SDS011;20725;51.196;3.510;2023-03-23T07:29:53;4.30;;;2.20;;
15665;SDS011;20725;51.196;3.510;2023-03-23T07:32:20;3.20;;;1.83;;
15665;SDS011;20725;51.196;3.510;2023-03-23T07:34:48;3.50;;;2.07;;
15665;SDS011;20725;51.196;3.510;2023-03-23T07:37:15;3.97;;;2.20;;
15665;SDS011;20725;51.196;3.510;2023-03-23T07:39:44;4.33;;;2.70;;
15665;SDS011;20725;51.196;3.510;2023-03-23T07:42:11;3.63;;;1.97;;
15665;SDS011;20725;51.196;3.510;2023-03-23T07:44:39;6.70;;;2.50;;
15665;SDS011;20725;51.196;3.510;2023-03-23T07:47:06;5.83;;;1.87;;
15665;SDS011;20725;51.196;3.510;2023-03-23T07:49:33;4.93;;;2.57;;
15665;SDS011;20725;51.196;3.510;2023-03-23T07:52:00;5.87;;;2.33;;
15665;SDS011;20725;51.196;3.510;2023-03-23T07:54:28;5.03;;;2.33;;
15665;SDS011;20725;51.196;3.510;2023-03-23T07:56:57;4.90;;;2.10;;
15665;SDS011;20725;51.196;3.510;2023-03-23T07:59:24;4.77;;;2.27;;
15665;SDS011;20725;51.196;3.510;2023-03-23T08:01:58;5.60;;;2.17;;
15665;SDS011;20725;51.196;3.510;2023-03-23T08:04:26;5.83;;;1.97;;
15665;SDS011;20725;51.196;3.510;2023-03-23T08:06:53;6.17;;;2.50;;
15665;SDS011;20725;51.196;3.510;2023-03-23T08:09:21;3.70;;;1.90;;
15665;SDS011;20725;51.196;3.510;2023-03-23T08:11:48;6.87;;;2.20;;
15665;SDS011;20725;51.196;3.510;2023-03-23T08:14:18;4.97;;;2.17;;
15665;SDS011;20725;51.196;3.510;2023-03-23T08:16:45;5.83;;;2.30;;
15665;SDS011;20725;51.196;3.510;2023-03-23T08:19:13;7.23;;;2.33;;
15665;SDS011;20725;51.196;3.510;2023-03-23T08:21:40;3.10;;;2.03;;
15665;SDS011;20725;51.196;3.510;2023-03-23T08:24:08;6.27;;;2.63;;
15665;SDS011;20725;51.196;3.510;2023-03-23T08:26:36;6.40;;;2.60;;
15665;SDS011;20725;51.196;3.510;2023-03-23T08:29:03;6.50;;;2.40;;
15665;SDS011;20725;51.196;3.510;2023-03-23T08:31:32;7.63;;;2.63;;
15665;SDS011;20725;51.196;3.510;2023-03-23T08:34:00;8.23;;;2.60;;
15665;SDS011;20725;51.196;3.510;2023-03-23T08:36:29;5.27;;;2.10;;
15665;SDS011;20725;51.196;3.510;2023-03-23T08:38:57;7.83;;;2.33;;
15665;SDS011;20725;51.196;3.510;2023-03-23T08:41:25;12.00;;;2.97;;
15665;SDS011;20725;51.196;3.510;2023-03-23T08:43:52;8.47;;;2.50;;
15665;SDS011;20725;51.196;3.510;2023-03-23T08:46:19;10.03;;;3.10;;
15665;SDS011;20725;51.196;3.510;2023-03-23T08:48:48;8.80;;;2.87;;
15665;SDS011;20725;51.196;3.510;2023-03-23T08:51:15;9.70;;;2.80;;
15665;SDS011;20725;51.196;3.510;2023-03-23T08:53:43;5.83;;;2.77;;
15665;SDS011;20725;51.196;3.510;2023-03-23T08:56:10;6.47;;;2.10;;
15665;SDS011;20725;51.196;3.510;2023-03-23T08:58:38;9.00;;;3.03;;
15665;SDS011;20725;51.196;3.510;2023-03-23T09:01:06;6.97;;;2.43;;
15665;SDS011;20725;51.196;3.510;2023-03-23T09:03:34;8.13;;;2.83;;
15665;SDS011;20725;51.196;3.510;2023-03-23T09:06:04;8.30;;;2.70;;
15665;SDS011;20725;51.196;3.510;2023-03-23T09:08:32;7.17;;;3.00;;
15665;SDS011;20725;51.196;3.510;2023-03-23T09:11:00;7.13;;;2.63;;
15665;SDS011;20725;51.196;3.510;2023-03-23T09:13:28;7.20;;;2.57;;
15665;SDS011;20725;51.196;3.510;2023-03-23T09:15:56;6.60;;;2.47;;
15665;SDS011;20725;51.196;3.510;2023-03-23T09:18:23;5.17;;;2.17;;
15665;SDS011;20725;51.196;3.510;2023-03-23T09:20:51;7.03;;;2.50;;
15665;SDS011;20725;51.196;3.510;2023-03-23T09:23:20;4.67;;;1.77;;
15665;SDS011;20725;51.196;3.510;2023-03-23T09:25:47;3.27;;;1.50;;
15665;SDS011;20725;51.196;3.510;2023-03-23T09:28:16;7.47;;;2.37;;
15665;SDS011;20725;51.196;3.510;2023-03-23T09:30:43;4.33;;;1.90;;
15665;SDS011;20725;51.196;3.510;2023-03-23T09:33:12;5.00;;;2.10;;
15665;SDS011;20725;51.196;3.510;2023-03-23T09:35:40;5.87;;;2.00;;
15665;SDS011;20725;51.196;3.510;2023-03-23T09:38:08;7.33;;;2.07;;
15665;SDS011;20725;51.196;3.510;2023-03-23T09:40:41;4.67;;;2.00;;
15665;SDS011;20725;51.196;3.510;2023-03-23T09:43:17;5.43;;;2.00;;
15665;SDS011;20725;51.196;3.510;2023-03-23T09:45:48;3.97;;;2.13;;
15665;SDS011;20725;51.196;3.510;2023-03-23T09:48:31;8.10;;;2.30;;
15665;SDS011;20725;51.196;3.510;2023-03-23T09:51:01;5.33;;;2.10;;
15665;SDS011;20725;51.196;3.510;2023-03-23T09:53:33;8.67;;;2.73;;
15665;SDS011;20725;51.196;3.510;2023-03-23T09:56:08;7.40;;;2.30;;
15665;SDS011;20725;51.196;3.510;2023-03-23T09:58:37;8.53;;;2.37;;
15665;SDS011;20725;51.196;3.510;2023-03-23T10:01:07;6.73;;;2.40;;
15665;SDS011;20725;51.196;3.510;2023-03-23T10:03:36;5.77;;;2.20;;
15665;SDS011;20725;51.196;3.510;2023-03-23T10:06:04;4.40;;;2.40;;
15665;SDS011;20725;51.196;3.510;2023-03-23T10:08:32;6.67;;;2.50;;
15665;SDS011;20725;51.196;3.510;2023-03-23T10:11:01;8.30;;;2.43;;
15665;SDS011;20725;51.196;3.510;2023-03-23T10:13:35;6.37;;;2.43;;
15665;SDS011;20725;51.196;3.510;2023-03-23T10:16:05;6.20;;;2.50;;
15665;SDS011;20725;51.196;3.510;2023-03-23T10:18:36;4.03;;;1.80;;
15665;SDS011;20725;51.196;3.510;2023-03-23T10:21:04;7.13;;;2.20;;
15665;SDS011;20725;51.196;3.510;2023-03-23T10:23:46;9.17;;;3.23;;
15665;SDS011;20725;51.196;3.510;2023-03-23T10:26:19;7.20;;;3.03;;
15665;SDS011;20725;51.196;3.510;2023-03-23T10:28:50;7.17;;;2.73;;
15665;SDS011;20725;51.196;3.510;2023-03-23T10:31:20;9.43;;;3.07;;
15665;SDS011;20725;51.196;3.510;2023-03-23T10:33:50;8.40;;;3.63;;
15665;SDS011;20725;51.196;3.510;2023-03-23T10:36:19;6.33;;;2.60;;
15665;SDS011;20725;51.196;3.510;2023-03-23T10:38:49;9.77;;;3.10;;
15665;SDS011;20725;51.196;3.510;2023-03-23T10:41:19;9.63;;;2.73;;
15665;SDS011;20725;51.196;3.510;2023-03-23T10:43:48;7.30;;;2.73;;
15665;SDS011;20725;51.196;3.510;2023-03-23T10:46:20;9.07;;;3.13;;
15665;SDS011;20725;51.196;3.510;2023-03-23T10:48:50;7.03;;;2.67;;
15665;SDS011;20725;51.196;3.510;2023-03-23T10:51:19;9.97;;;3.10;;
15665;SDS011;20725;51.196;3.510;2023-03-23T10:53:49;7.73;;;2.57;;
15665;SDS011;20725;51.196;3.510;2023-03-23T10:56:22;6.53;;;2.77;;
15665;SDS011;20725;51.196;3.510;2023-03-23T10:58:52;7.50;;;2.73;;
15665;SDS011;20725;51.196;3.510;2023-03-23T11:01:20;6.80;;;2.57;;
15665;SDS011;20725;51.196;3.510;2023-03-23T11:03:55;7.37;;;2.53;;
15665;SDS011;20725;51.196;3.510;2023-03-23T11:06:26;6.43;;;2.60;;
15665;SDS011;20725;51.196;3.510;2023-03-23T11:08:55;6.50;;;2.50;;
15665;SDS011;20725;51.196;3.510;2023-03-23T11:11:24;7.17;;;2.70;;
15665;SDS011;20725;51.196;3.510;2023-03-23T11:13:57;8.20;;;3.00;;
15665;SDS011;20725;51.196;3.510;2023-03-23T11:16:26;9.07;;;2.80;;
15665;SDS011;20725;51.196;3.510;2023-03-23T11:18:54;6.13;;;2.47;;
15665;SDS011;20725;51.196;3.510;2023-03-23T11:21:22;5.77;;;2.90;;
15665;SDS011;20725;51.196;3.510;2023-03-23T11:23:52;7.87;;;2.63;;
15665;SDS011;20725;51.196;3.510;2023-03-23T11:26:20;7.30;;;2.63;;
15665;SDS011;20725;51.196;3.510;2023-03-23T11:28:52;12.47;;;3.10;;
15665;SDS011;20725;51.196;3.510;2023-03-23T11:31:22;8.07;;;2.90;;
15665;SDS011;20725;51.196;3.510;2023-03-23T11:33:51;10.63;;;3.63;;
15665;SDS011;20725;51.196;3.510;2023-03-23T11:36:20;12.57;;;3.30;;
15665;SDS011;20725;51.196;3.510;2023-03-23T11:38:52;8.50;;;2.70;;
15665;SDS011;20725;51.196;3.510;2023-03-23T11:41:22;13.60;;;3.50;;
15665;SDS011;20725;51.196;3.510;2023-03-23T11:43:51;7.47;;;3.40;;
15665;SDS011;20725;51.196;3.510;2023-03-23T11:46:29;9.47;;;3.03;;
15665;SDS011;20725;51.196;3.510;2023-03-23T11:48:59;9.37;;;3.83;;
15665;SDS011;20725;51.196;3.510;2023-03-23T11:51:29;6.93;;;2.73;;
15665;SDS011;20725;51.196;3.510;2023-03-23T11:54:00;10.17;;;3.10;;
15665;SDS011;20725;51.196;3.510;2023-03-23T11:56:29;6.20;;;2.60;;
15665;SDS011;20725;51.196;3.510;2023-03-23T11:58:57;6.37;;;2.83;;
15665;SDS011;20725;51.196;3.510;2023-03-23T12:01:36;7.00;;;2.70;;
15665;SDS011;20725;51.196;3.510;2023-03-23T12:04:17;6.20;;;2.77;;
15665;SDS011;20725;51.196;3.510;2023-03-23T12:06:49;6.30;;;2.43;;
15665;SDS011;20725;51.196;3.510;2023-03-23T12:09:24;11.87;;;3.30;;
15665;SDS011;20725;51.196;3.510;2023-03-23T12:12:00;9.43;;;2.90;;
15665;SDS011;20725;51.196;3.510;2023-03-23T12:14:33;7.60;;;2.63;;
15665;SDS011;20725;51.196;3.510;2023-03-23T12:17:09;9.07;;;3.07;;
15665;SDS011;20725;51.196;3.510;2023-03-23T12:19:42;5.10;;;2.57;;
15665;SDS011;20725;51.196;3.510;2023-03-23T12:22:13;6.20;;;2.30;;
15665;SDS011;20725;51.196;3.510;2023-03-23T12:24:52;5.60;;;2.37;;
15665;SDS011;20725;51.196;3.510;2023-03-23T12:27:24;5.33;;;2.23;;
15665;SDS011;20725;51.196;3.510;2023-03-23T12:32:49;4.57;;;2.30;;
15665;SDS011;20725;51.196;3.510;2023-03-23T12:35:22;7.13;;;2.57;;
15665;SDS011;20725;51.196;3.510;2023-03-23T12:37:56;5.53;;;2.70;;
15665;SDS011;20725;51.196;3.510;2023-03-23T12:40:34;5.57;;;2.60;;
15665;SDS011;20725;51.196;3.510;2023-03-23T12:43:04;7.70;;;2.80;;
15665;SDS011;20725;51.196;3.510;2023-03-23T12:45:43;5.93;;;2.70;;
15665;SDS011;20725;51.196;3.510;2023-03-23T12:48:17;7.33;;;2.80;;
15665;SDS011;20725;51.196;3.510;2023-03-23T12:50:47;9.63;;;3.60;;
15665;SDS011;20725;51.196;3.510;2023-03-23T12:53:17;7.47;;;3.20;;
15665;SDS011;20725;51.196;3.510;2023-03-23T12:55:46;11.97;;;3.93;;
15665;SDS011;20725;51.196;3.510;2023-03-23T12:58:15;10.57;;;3.33;;
15665;SDS011;20725;51.196;3.510;2023-03-23T13:00:54;10.07;;;3.33;;
15665;SDS011;20725;51.196;3.510;2023-03-23T13:03:27;9.50;;;3.63;;
15665;SDS011;20725;51.196;3.510;2023-03-23T13:05:59;8.10;;;3.37;;
15665;SDS011;20725;51.196;3.510;2023-03-23T13:08:28;10.20;;;3.80;;
15665;SDS011;20725;51.196;3.510;2023-03-23T13:10:58;11.17;;;3.93;;
15665;SDS011;20725;51.196;3.510;2023-03-23T13:13:39;10.00;;;3.80;;
15665;SDS011;20725;51.196;3.510;2023-03-23T13:16:11;9.53;;;3.53;;
15665;SDS011;20725;51.196;3.510;2023-03-23T13:18:43;12.50;;;3.83;;
15665;SDS011;20725;51.196;3.510;2023-03-23T13:21:14;8.40;;;3.13;;
15665;SDS011;20725;51.196;3.510;2023-03-23T13:23:42;9.90;;;3.30;;
15665;SDS011;20725;51.196;3.510;2023-03-23T13:26:12;10.47;;;3.50;;
15665;SDS011;20725;51.196;3.510;2023-03-23T13:28:48;8.07;;;3.30;;
15665;SDS011;20725;51.196;3.510;2023-03-23T13:31:19;11.37;;;3.87;;
15665;SDS011;20725;51.196;3.510;2023-03-23T13:33:52;9.40;;;3.07;;
15665;SDS011;20725;51.196;3.510;2023-03-23T13:36:26;11.37;;;4.20;;
15665;SDS011;20725;51.196;3.510;2023-03-23T13:38:53;9.73;;;3.93;;
15665;SDS011;20725;51.196;3.510;2023-03-23T13:41:21;9.43;;;4.43;;
15665;SDS011;20725;51.196;3.510;2023-03-23T13:43:49;9.37;;;3.67;;
15665;SDS011;20725;51.196;3.510;2023-03-23T13:46:27;9.47;;;3.40;;
15665;SDS011;20725;51.196;3.510;2023-03-23T13:51:51;9.63;;;3.70;;
15665;SDS011;20725;51.196;3.510;2023-03-23T13:54:23;9.77;;;3.47;;
15665;SDS011;20725;51.196;3.510;2023-03-23T13:56:53;10.77;;;3.67;;
15665;SDS011;20725;51.196;3.510;2023-03-23T13:59:31;6.90;;;3.27;;
15665;SDS011;20725;51.196;3.510;2023-03-23T14:04:41;12.80;;;4.00;;
15665;SDS011;20725;51.196;3.510;2023-03-23T14:07:11;11.07;;;3.53;;
15665;SDS011;20725;51.196;3.510;2023-03-23T14:09:39;12.93;;;3.60;;
15665;SDS011;20725;51.196;3.510;2023-03-23T14:12:13;15.60;;;3.57;;
15665;SDS011;20725;51.196;3.510;2023-03-23T14:14:42;11.63;;;3.80;;
15665;SDS011;20725;51.196;3.510;2023-03-23T14:17:11;12.37;;;3.63;;
15665;SDS011;20725;51.196;3.510;2023-03-23T14:19:40;13.23;;;4.00;;
15665;SDS011;20725;51.196;3.510;2023-03-23T14:22:18;13.40;;;3.60;;
15665;SDS011;20725;51.196;3.510;2023-03-23T14:24:46;9.03;;;2.90;;
15665;SDS011;20725;51.196;3.510;2023-03-23T14:27:14;9.93;;;3.33;;
15665;SDS011;20725;51.196;3.510;2023-03-23T14:29:42;10.70;;;3.40;;
15665;SDS011;20725;51.196;3.510;2023-03-23T14:32:11;9.97;;;3.47;;
15665;SDS011;20725;51.196;3.510;2023-03-23T14:34:41;10.20;;;3.53;;
15665;SDS011;20725;51.196;3.510;2023-03-23T14:37:09;8.40;;;3.50;;
15665;SDS011;20725;51.196;3.510;2023-03-23T14:39:40;10.63;;;3.70;;
15665;SDS011;20725;51.196;3.510;2023-03-23T14:42:11;10.23;;;3.60;;
15665;SDS011;20725;51.196;3.510;2023-03-23T14:44:40;8.70;;;3.07;;
15665;SDS011;20725;51.196;3.510;2023-03-23T14:47:10;8.80;;;3.50;;
15665;SDS011;20725;51.196;3.510;2023-03-23T14:49:39;8.83;;;3.10;;
15665;SDS011;20725;51.196;3.510;2023-03-23T14:52:09;12.37;;;3.73;;
15665;SDS011;20725;51.196;3.510;2023-03-23T14:54:37;12.70;;;4.13;;
15665;SDS011;20725;51.196;3.510;2023-03-23T14:57:11;11.20;;;3.40;;
15665;SDS011;20725;51.196;3.510;2023-03-23T14:59:39;9.03;;;3.30;;
15665;SDS011;20725;51.196;3.510;2023-03-23T15:02:09;12.53;;;3.57;;
15665;SDS011;20725;51.196;3.510;2023-03-23T15:04:38;8.40;;;3.30;;
15665;SDS011;20725;51.196;3.510;2023-03-23T15:07:05;9.33;;;3.30;;
15665;SDS011;20725;51.196;3.510;2023-03-23T15:09:33;8.67;;;3.80;;
15665;SDS011;20725;51.196;3.510;2023-03-23T15:12:02;7.87;;;3.20;;